sensor_id;sensor_type;location;lat;lon;timestamp;P1;durP1;ratioP1;P2;durP2;ratioP2
8225;SDS011;4154;48.810;9.012;2022-12-18T00:01:26;21.07;;;15.20;;
8225;SDS011;4154;48.810;9.012;2022-12-18T00:03:59;21.20;;;14.10;;
8225;SDS011;4154;48.810;9.012;2022-12-18T00:06:30;20.90;;;13.47;;
8225;SDS011;4154;48.810;9.012;2022-12-18T00:09:00;20.60;;;14.23;;
8225;SDS011;4154;48.810;9.012;2022-12-18T00:11:28;22.93;;;14.37;;
8225;SDS011;4154;48.810;9.012;2022-12-18T00:13:56;20.90;;;14.23;;
8225;SDS011;4154;48.810;9.012;2022-12-18T00:16:24;19.53;;;13.57;;
8225;SDS011;4154;48.810;9.012;2022-12-18T00:18:53;20.30;;;14.27;;
8225;SDS011;4154;48.810;9.012;2022-12-18T00:21:23;19.83;;;13.67;;
8225;SDS011;4154;48.810;9.012;2022-12-18T00:23:51;20.47;;;14.43;;
8225;SDS011;4154;48.810;9.012;2022-12-18T00:26:18;20.33;;;14.07;;
8225;SDS011;4154;48.810;9.012;2022-12-18T00:28:47;21.63;;;14.37;;
8225;SDS011;4154;48.810;9.012;2022-12-18T00:31:15;24.83;;;14.87;;
8225;SDS011;4154;48.810;9.012;2022-12-18T00:33:45;21.27;;;14.63;;
8225;SDS011;4154;48.810;9.012;2022-12-18T00:36:13;21.00;;;14.70;;
8225;SDS011;4154;48.810;9.012;2022-12-18T00:38:43;21.73;;;14.37;;
8225;SDS011;4154;48.810;9.012;2022-12-18T00:41:09;19.20;;;13.87;;
8225;SDS011;4154;48.810;9.012;2022-12-18T00:43:38;20.03;;;14.00;;
8225;SDS011;4154;48.810;9.012;2022-12-18T00:46:04;19.53;;;13.47;;
8225;SDS011;4154;48.810;9.012;2022-12-18T00:48:30;21.37;;;14.67;;
8225;SDS011;4154;48.810;9.012;2022-12-18T00:50:57;20.90;;;14.27;;
8225;SDS011;4154;48.810;9.012;2022-12-18T00:53:22;19.50;;;14.03;;
8225;SDS011;4154;48.810;9.012;2022-12-18T00:55:48;21.37;;;14.07;;
8225;SDS011;4154;48.810;9.012;2022-12-18T00:58:14;19.83;;;13.00;;
8225;SDS011;4154;48.810;9.012;2022-12-18T01:00:41;19.43;;;13.70;;
8225;SDS011;4154;48.810;9.012;2022-12-18T01:03:09;20.80;;;13.63;;
8225;SDS011;4154;48.810;9.012;2022-12-18T01:05:39;21.50;;;13.73;;
8225;SDS011;4154;48.810;9.012;2022-12-18T01:08:05;21.03;;;14.07;;
8225;SDS011;4154;48.810;9.012;2022-12-18T01:10:31;20.93;;;13.27;;
8225;SDS011;4154;48.810;9.012;2022-12-18T01:12:57;19.53;;;14.03;;
8225;SDS011;4154;48.810;9.012;2022-12-18T01:15:23;17.47;;;12.73;;
8225;SDS011;4154;48.810;9.012;2022-12-18T01:17:51;18.17;;;13.27;;
8225;SDS011;4154;48.810;9.012;2022-12-18T01:20:18;17.70;;;13.10;;
8225;SDS011;4154;48.810;9.012;2022-12-18T01:22:44;20.07;;;13.50;;
8225;SDS011;4154;48.810;9.012;2022-12-18T01:25:09;20.73;;;13.73;;
8225;SDS011;4154;48.810;9.012;2022-12-18T01:27:35;19.33;;;14.03;;
8225;SDS011;4154;48.810;9.012;2022-12-18T01:30:01;20.17;;;13.37;;
8225;SDS011;4154;48.810;9.012;2022-12-18T01:32:29;20.53;;;14.00;;
8225;SDS011;4154;48.810;9.012;2022-12-18T01:34:56;19.97;;;14.00;;
8225;SDS011;4154;48.810;9.012;2022-12-18T01:37:21;20.97;;;15.03;;
8225;SDS011;4154;48.810;9.012;2022-12-18T01:39:47;23.40;;;14.87;;
8225;SDS011;4154;48.810;9.012;2022-12-18T01:42:15;21.10;;;14.90;;
8225;SDS011;4154;48.810;9.012;2022-12-18T01:53:02;20.70;;;13.93;;
8225;SDS011;4154;48.810;9.012;2022-12-18T01:55:45;20.13;;;13.83;;
8225;SDS011;4154;48.810;9.012;2022-12-18T01:58:14;23.80;;;13.93;;
8225;SDS011;4154;48.810;9.012;2022-12-18T02:00:41;19.93;;;13.60;;
8225;SDS011;4154;48.810;9.012;2022-12-18T02:03:07;19.60;;;13.90;;
8225;SDS011;4154;48.810;9.012;2022-12-18T02:05:53;19.50;;;13.23;;
8225;SDS011;4154;48.810;9.012;2022-12-18T02:08:45;19.43;;;13.17;;
8225;SDS011;4154;48.810;9.012;2022-12-18T02:14:38;19.27;;;13.20;;
8225;SDS011;4154;48.810;9.012;2022-12-18T02:20:21;19.40;;;13.03;;
8225;SDS011;4154;48.810;9.012;2022-12-18T02:23:12;20.17;;;14.00;;
8225;SDS011;4154;48.810;9.012;2022-12-18T02:26:20;20.57;;;13.77;;
8225;SDS011;4154;48.810;9.012;2022-12-18T02:29:00;18.63;;;12.20;;
8225;SDS011;4154;48.810;9.012;2022-12-18T02:31:35;20.80;;;12.80;;
8225;SDS011;4154;48.810;9.012;2022-12-18T02:34:08;21.00;;;13.47;;
8225;SDS011;4154;48.810;9.012;2022-12-18T02:36:38;18.73;;;14.07;;
8225;SDS011;4154;48.810;9.012;2022-12-18T02:39:09;19.27;;;13.43;;
8225;SDS011;4154;48.810;9.012;2022-12-18T02:41:38;20.37;;;13.50;;
8225;SDS011;4154;48.810;9.012;2022-12-18T02:44:10;20.03;;;13.07;;
8225;SDS011;4154;48.810;9.012;2022-12-18T02:47:12;20.77;;;13.90;;
8225;SDS011;4154;48.810;9.012;2022-12-18T02:58:26;19.40;;;12.57;;
8225;SDS011;4154;48.810;9.012;2022-12-18T03:04:19;19.33;;;12.43;;
8225;SDS011;4154;48.810;9.012;2022-12-18T03:06:59;19.07;;;13.13;;
8225;SDS011;4154;48.810;9.012;2022-12-18T03:09:35;18.03;;;13.07;;
8225;SDS011;4154;48.810;9.012;2022-12-18T03:12:09;17.97;;;12.13;;
8225;SDS011;4154;48.810;9.012;2022-12-18T03:17:27;18.77;;;12.60;;
8225;SDS011;4154;48.810;9.012;2022-12-18T03:19:58;18.70;;;12.83;;
8225;SDS011;4154;48.810;9.012;2022-12-18T03:22:33;17.73;;;12.13;;
8225;SDS011;4154;48.810;9.012;2022-12-18T03:25:04;17.43;;;12.40;;
8225;SDS011;4154;48.810;9.012;2022-12-18T03:27:36;18.03;;;12.43;;
8225;SDS011;4154;48.810;9.012;2022-12-18T03:30:08;18.70;;;13.00;;
8225;SDS011;4154;48.810;9.012;2022-12-18T03:35:33;18.90;;;12.03;;
8225;SDS011;4154;48.810;9.012;2022-12-18T03:38:06;17.57;;;11.90;;
8225;SDS011;4154;48.810;9.012;2022-12-18T03:40:35;16.50;;;12.00;;
8225;SDS011;4154;48.810;9.012;2022-12-18T03:43:16;17.40;;;11.73;;
8225;SDS011;4154;48.810;9.012;2022-12-18T03:46:27;16.07;;;11.70;;
8225;SDS011;4154;48.810;9.012;2022-12-18T03:49:05;15.30;;;10.77;;
8225;SDS011;4154;48.810;9.012;2022-12-18T03:51:45;15.33;;;11.00;;
8225;SDS011;4154;48.810;9.012;2022-12-18T03:54:21;15.83;;;11.33;;
8225;SDS011;4154;48.810;9.012;2022-12-18T03:56:52;15.97;;;10.90;;
8225;SDS011;4154;48.810;9.012;2022-12-18T03:59:26;13.90;;;10.47;;
8225;SDS011;4154;48.810;9.012;2022-12-18T04:01:54;17.17;;;11.20;;
8225;SDS011;4154;48.810;9.012;2022-12-18T04:04:24;16.90;;;11.90;;
8225;SDS011;4154;48.810;9.012;2022-12-18T04:06:53;14.53;;;10.57;;
8225;SDS011;4154;48.810;9.012;2022-12-18T04:09:20;14.40;;;10.77;;
8225;SDS011;4154;48.810;9.012;2022-12-18T04:11:46;15.33;;;10.90;;
8225;SDS011;4154;48.810;9.012;2022-12-18T04:14:12;13.67;;;10.00;;
8225;SDS011;4154;48.810;9.012;2022-12-18T04:16:38;12.53;;;10.00;;
8225;SDS011;4154;48.810;9.012;2022-12-18T04:19:04;14.80;;;10.13;;
8225;SDS011;4154;48.810;9.012;2022-12-18T04:21:30;13.90;;;10.00;;
8225;SDS011;4154;48.810;9.012;2022-12-18T04:23:55;15.67;;;10.60;;
8225;SDS011;4154;48.810;9.012;2022-12-18T04:26:21;13.67;;;9.77;;
8225;SDS011;4154;48.810;9.012;2022-12-18T04:28:47;14.37;;;10.63;;
8225;SDS011;4154;48.810;9.012;2022-12-18T04:31:13;13.43;;;10.03;;
8225;SDS011;4154;48.810;9.012;2022-12-18T04:33:39;14.63;;;10.33;;
8225;SDS011;4154;48.810;9.012;2022-12-18T04:36:05;14.13;;;10.50;;
8225;SDS011;4154;48.810;9.012;2022-12-18T04:38:31;15.73;;;10.77;;
8225;SDS011;4154;48.810;9.012;2022-12-18T04:40:57;13.67;;;10.70;;
8225;SDS011;4154;48.810;9.012;2022-12-18T04:43:23;16.73;;;11.00;;
8225;SDS011;4154;48.810;9.012;2022-12-18T04:45:48;14.63;;;11.00;;
8225;SDS011;4154;48.810;9.012;2022-12-18T04:48:14;14.93;;;10.83;;
8225;SDS011;4154;48.810;9.012;2022-12-18T04:50:40;15.27;;;11.27;;
8225;SDS011;4154;48.810;9.012;2022-12-18T04:53:06;14.97;;;10.93;;
8225;SDS011;4154;48.810;9.012;2022-12-18T04:55:32;14.73;;;10.97;;
8225;SDS011;4154;48.810;9.012;2022-12-18T04:57:57;13.87;;;10.67;;
8225;SDS011;4154;48.810;9.012;2022-12-18T05:00:23;14.00;;;10.47;;
8225;SDS011;4154;48.810;9.012;2022-12-18T05:02:48;13.67;;;9.80;;
8225;SDS011;4154;48.810;9.012;2022-12-18T05:05:16;13.83;;;10.47;;
8225;SDS011;4154;48.810;9.012;2022-12-18T05:07:42;13.63;;;9.83;;
8225;SDS011;4154;48.810;9.012;2022-12-18T05:10:08;14.07;;;10.07;;
8225;SDS011;4154;48.810;9.012;2022-12-18T05:12:34;15.90;;;9.87;;
8225;SDS011;4154;48.810;9.012;2022-12-18T05:15:20;13.73;;;10.23;;
8225;SDS011;4154;48.810;9.012;2022-12-18T05:17:45;12.87;;;9.90;;
8225;SDS011;4154;48.810;9.012;2022-12-18T05:20:11;14.03;;;9.93;;
8225;SDS011;4154;48.810;9.012;2022-12-18T05:22:37;16.10;;;10.37;;
8225;SDS011;4154;48.810;9.012;2022-12-18T05:25:03;13.03;;;9.93;;
8225;SDS011;4154;48.810;9.012;2022-12-18T05:27:29;12.27;;;9.33;;
8225;SDS011;4154;48.810;9.012;2022-12-18T05:29:55;13.40;;;10.03;;
8225;SDS011;4154;48.810;9.012;2022-12-18T05:32:20;13.83;;;10.10;;
8225;SDS011;4154;48.810;9.012;2022-12-18T05:34:46;12.97;;;9.93;;
8225;SDS011;4154;48.810;9.012;2022-12-18T05:37:11;11.67;;;9.17;;
8225;SDS011;4154;48.810;9.012;2022-12-18T05:39:37;12.77;;;9.83;;
8225;SDS011;4154;48.810;9.012;2022-12-18T05:42:03;14.23;;;10.20;;
8225;SDS011;4154;48.810;9.012;2022-12-18T05:44:29;14.73;;;10.10;;
8225;SDS011;4154;48.810;9.012;2022-12-18T05:46:54;13.57;;;9.77;;
8225;SDS011;4154;48.810;9.012;2022-12-18T05:49:20;12.57;;;9.50;;
8225;SDS011;4154;48.810;9.012;2022-12-18T05:51:46;13.17;;;9.77;;
8225;SDS011;4154;48.810;9.012;2022-12-18T05:54:11;14.90;;;10.40;;
8225;SDS011;4154;48.810;9.012;2022-12-18T05:56:37;14.00;;;9.50;;
8225;SDS011;4154;48.810;9.012;2022-12-18T05:59:03;14.27;;;9.90;;
8225;SDS011;4154;48.810;9.012;2022-12-18T06:01:29;13.00;;;9.20;;
8225;SDS011;4154;48.810;9.012;2022-12-18T06:03:54;14.00;;;9.70;;
8225;SDS011;4154;48.810;9.012;2022-12-18T06:06:22;13.77;;;9.57;;
8225;SDS011;4154;48.810;9.012;2022-12-18T06:08:53;14.43;;;9.57;;
8225;SDS011;4154;48.810;9.012;2022-12-18T06:11:21;14.53;;;10.10;;
8225;SDS011;4154;48.810;9.012;2022-12-18T06:13:50;13.43;;;9.20;;
8225;SDS011;4154;48.810;9.012;2022-12-18T06:16:18;14.70;;;9.63;;
8225;SDS011;4154;48.810;9.012;2022-12-18T06:18:44;13.17;;;9.30;;
8225;SDS011;4154;48.810;9.012;2022-12-18T06:21:11;13.50;;;9.33;;
8225;SDS011;4154;48.810;9.012;2022-12-18T06:23:36;14.27;;;9.97;;
8225;SDS011;4154;48.810;9.012;2022-12-18T06:26:03;15.60;;;10.13;;
8225;SDS011;4154;48.810;9.012;2022-12-18T06:28:34;13.57;;;9.50;;
8225;SDS011;4154;48.810;9.012;2022-12-18T06:31:00;15.83;;;11.13;;
8225;SDS011;4154;48.810;9.012;2022-12-18T06:33:29;14.77;;;10.73;;
8225;SDS011;4154;48.810;9.012;2022-12-18T06:35:59;14.67;;;10.50;;
8225;SDS011;4154;48.810;9.012;2022-12-18T06:38:31;14.00;;;9.73;;
8225;SDS011;4154;48.810;9.012;2022-12-18T06:41:00;14.23;;;10.33;;
8225;SDS011;4154;48.810;9.012;2022-12-18T06:43:31;14.37;;;9.70;;
8225;SDS011;4154;48.810;9.012;2022-12-18T06:46:00;13.23;;;9.87;;
8225;SDS011;4154;48.810;9.012;2022-12-18T06:48:27;13.27;;;9.53;;
8225;SDS011;4154;48.810;9.012;2022-12-18T06:50:52;14.30;;;9.93;;
8225;SDS011;4154;48.810;9.012;2022-12-18T06:53:18;14.03;;;9.30;;
8225;SDS011;4154;48.810;9.012;2022-12-18T06:55:44;14.17;;;9.87;;
8225;SDS011;4154;48.810;9.012;2022-12-18T06:58:10;15.00;;;10.53;;
8225;SDS011;4154;48.810;9.012;2022-12-18T07:00:36;12.13;;;9.20;;
8225;SDS011;4154;48.810;9.012;2022-12-18T07:03:01;14.23;;;9.80;;
8225;SDS011;4154;48.810;9.012;2022-12-18T07:05:27;13.33;;;9.53;;
8225;SDS011;4154;48.810;9.012;2022-12-18T07:07:53;13.13;;;9.97;;
8225;SDS011;4154;48.810;9.012;2022-12-18T07:10:19;15.27;;;10.47;;
8225;SDS011;4154;48.810;9.012;2022-12-18T07:12:44;14.40;;;9.97;;
8225;SDS011;4154;48.810;9.012;2022-12-18T07:15:11;14.50;;;10.07;;
8225;SDS011;4154;48.810;9.012;2022-12-18T07:17:37;14.77;;;10.07;;
8225;SDS011;4154;48.810;9.012;2022-12-18T07:20:03;14.10;;;9.93;;
8225;SDS011;4154;48.810;9.012;2022-12-18T07:22:29;13.13;;;9.53;;
8225;SDS011;4154;48.810;9.012;2022-12-18T07:24:55;12.37;;;8.83;;
8225;SDS011;4154;48.810;9.012;2022-12-18T07:27:22;12.90;;;9.60;;
8225;SDS011;4154;48.810;9.012;2022-12-18T07:29:48;19.23;;;10.23;;
8225;SDS011;4154;48.810;9.012;2022-12-18T07:32:14;13.77;;;9.80;;
8225;SDS011;4154;48.810;9.012;2022-12-18T07:34:39;13.93;;;10.17;;
8225;SDS011;4154;48.810;9.012;2022-12-18T07:37:06;16.37;;;11.40;;
8225;SDS011;4154;48.810;9.012;2022-12-18T07:39:31;15.80;;;11.67;;
8225;SDS011;4154;48.810;9.012;2022-12-18T07:41:57;16.43;;;11.60;;
8225;SDS011;4154;48.810;9.012;2022-12-18T07:44:41;16.00;;;11.10;;
8225;SDS011;4154;48.810;9.012;2022-12-18T07:47:07;16.67;;;11.30;;
8225;SDS011;4154;48.810;9.012;2022-12-18T07:49:33;14.63;;;11.20;;
8225;SDS011;4154;48.810;9.012;2022-12-18T07:51:59;16.43;;;11.10;;
8225;SDS011;4154;48.810;9.012;2022-12-18T07:54:24;16.90;;;12.00;;
8225;SDS011;4154;48.810;9.012;2022-12-18T07:56:50;18.27;;;11.87;;
8225;SDS011;4154;48.810;9.012;2022-12-18T07:59:17;16.43;;;11.40;;
8225;SDS011;4154;48.810;9.012;2022-12-18T08:01:43;16.77;;;10.87;;
8225;SDS011;4154;48.810;9.012;2022-12-18T08:04:09;16.23;;;10.53;;
8225;SDS011;4154;48.810;9.012;2022-12-18T08:06:35;14.90;;;11.33;;
8225;SDS011;4154;48.810;9.012;2022-12-18T08:09:01;16.77;;;11.33;;
8225;SDS011;4154;48.810;9.012;2022-12-18T08:11:28;14.67;;;11.17;;
8225;SDS011;4154;48.810;9.012;2022-12-18T08:13:54;16.50;;;12.37;;
8225;SDS011;4154;48.810;9.012;2022-12-18T08:16:20;16.23;;;11.40;;
8225;SDS011;4154;48.810;9.012;2022-12-18T08:18:47;16.63;;;11.80;;
8225;SDS011;4154;48.810;9.012;2022-12-18T08:21:15;17.70;;;12.13;;
8225;SDS011;4154;48.810;9.012;2022-12-18T08:23:44;15.67;;;11.33;;
8225;SDS011;4154;48.810;9.012;2022-12-18T08:26:10;17.07;;;12.00;;
8225;SDS011;4154;48.810;9.012;2022-12-18T08:28:37;15.60;;;11.30;;
8225;SDS011;4154;48.810;9.012;2022-12-18T08:31:03;15.70;;;11.53;;
8225;SDS011;4154;48.810;9.012;2022-12-18T08:33:29;15.00;;;11.13;;
8225;SDS011;4154;48.810;9.012;2022-12-18T08:35:55;16.40;;;11.53;;
8225;SDS011;4154;48.810;9.012;2022-12-18T08:38:21;16.87;;;11.33;;
8225;SDS011;4154;48.810;9.012;2022-12-18T08:40:47;15.13;;;10.93;;
8225;SDS011;4154;48.810;9.012;2022-12-18T08:43:13;16.60;;;11.27;;
8225;SDS011;4154;48.810;9.012;2022-12-18T08:45:57;15.80;;;10.73;;
8225;SDS011;4154;48.810;9.012;2022-12-18T08:48:23;16.40;;;11.07;;
8225;SDS011;4154;48.810;9.012;2022-12-18T08:50:55;14.90;;;11.07;;
8225;SDS011;4154;48.810;9.012;2022-12-18T08:53:23;16.47;;;11.13;;
8225;SDS011;4154;48.810;9.012;2022-12-18T08:55:49;15.73;;;10.93;;
8225;SDS011;4154;48.810;9.012;2022-12-18T08:58:15;15.63;;;11.17;;
8225;SDS011;4154;48.810;9.012;2022-12-18T09:00:41;15.60;;;11.17;;
8225;SDS011;4154;48.810;9.012;2022-12-18T09:03:13;16.57;;;11.60;;
8225;SDS011;4154;48.810;9.012;2022-12-18T09:05:40;14.77;;;10.73;;
8225;SDS011;4154;48.810;9.012;2022-12-18T09:08:06;15.23;;;11.07;;
8225;SDS011;4154;48.810;9.012;2022-12-18T09:10:32;15.60;;;11.37;;
8225;SDS011;4154;48.810;9.012;2022-12-18T09:12:58;16.47;;;11.77;;
8225;SDS011;4154;48.810;9.012;2022-12-18T09:15:23;17.67;;;11.50;;
8225;SDS011;4154;48.810;9.012;2022-12-18T09:17:49;16.17;;;11.67;;
8225;SDS011;4154;48.810;9.012;2022-12-18T09:20:17;16.33;;;11.30;;
8225;SDS011;4154;48.810;9.012;2022-12-18T09:22:43;15.13;;;11.57;;
8225;SDS011;4154;48.810;9.012;2022-12-18T09:25:10;18.03;;;12.17;;
8225;SDS011;4154;48.810;9.012;2022-12-18T09:27:36;19.00;;;11.90;;
8225;SDS011;4154;48.810;9.012;2022-12-18T09:30:02;16.03;;;11.47;;
8225;SDS011;4154;48.810;9.012;2022-12-18T09:32:29;18.10;;;12.13;;
8225;SDS011;4154;48.810;9.012;2022-12-18T09:34:54;16.50;;;11.50;;
8225;SDS011;4154;48.810;9.012;2022-12-18T09:37:20;16.10;;;11.87;;
8225;SDS011;4154;48.810;9.012;2022-12-18T09:39:45;18.80;;;13.27;;
8225;SDS011;4154;48.810;9.012;2022-12-18T09:42:20;17.77;;;11.80;;
8225;SDS011;4154;48.810;9.012;2022-12-18T09:44:49;20.20;;;13.20;;
8225;SDS011;4154;48.810;9.012;2022-12-18T09:47:20;19.40;;;13.40;;
8225;SDS011;4154;48.810;9.012;2022-12-18T09:49:54;18.73;;;13.43;;
8225;SDS011;4154;48.810;9.012;2022-12-18T09:52:40;17.17;;;12.40;;
8225;SDS011;4154;48.810;9.012;2022-12-18T09:55:32;17.97;;;12.67;;
8225;SDS011;4154;48.810;9.012;2022-12-18T09:58:17;16.93;;;11.40;;
8225;SDS011;4154;48.810;9.012;2022-12-18T10:00:53;16.67;;;11.63;;
8225;SDS011;4154;48.810;9.012;2022-12-18T10:03:20;16.57;;;11.13;;
8225;SDS011;4154;48.810;9.012;2022-12-18T10:14:51;17.27;;;11.60;;
8225;SDS011;4154;48.810;9.012;2022-12-18T10:20:34;17.83;;;12.23;;
8225;SDS011;4154;48.810;9.012;2022-12-18T10:26:23;16.63;;;12.27;;
8225;SDS011;4154;48.810;9.012;2022-12-18T10:28:50;16.20;;;12.00;;
8225;SDS011;4154;48.810;9.012;2022-12-18T10:31:20;16.10;;;11.33;;
8225;SDS011;4154;48.810;9.012;2022-12-18T10:33:48;17.83;;;11.77;;
8225;SDS011;4154;48.810;9.012;2022-12-18T10:36:14;18.67;;;13.17;;
8225;SDS011;4154;48.810;9.012;2022-12-18T10:38:40;19.77;;;13.37;;
8225;SDS011;4154;48.810;9.012;2022-12-18T10:41:14;20.17;;;12.50;;
8225;SDS011;4154;48.810;9.012;2022-12-18T10:44:10;20.17;;;12.80;;
8225;SDS011;4154;48.810;9.012;2022-12-18T10:46:48;16.87;;;11.70;;
8225;SDS011;4154;48.810;9.012;2022-12-18T10:55:04;16.23;;;11.50;;
8225;SDS011;4154;48.810;9.012;2022-12-18T10:57:40;15.67;;;12.07;;
8225;SDS011;4154;48.810;9.012;2022-12-18T11:02:55;17.43;;;12.30;;
8225;SDS011;4154;48.810;9.012;2022-12-18T11:07:54;16.50;;;11.73;;
8225;SDS011;4154;48.810;9.012;2022-12-18T11:10:23;16.63;;;11.53;;
8225;SDS011;4154;48.810;9.012;2022-12-18T11:13:08;17.07;;;12.00;;
8225;SDS011;4154;48.810;9.012;2022-12-18T11:15:42;16.90;;;11.73;;
8225;SDS011;4154;48.810;9.012;2022-12-18T11:18:28;15.80;;;11.67;;
8225;SDS011;4154;48.810;9.012;2022-12-18T11:21:06;15.67;;;11.57;;
8225;SDS011;4154;48.810;9.012;2022-12-18T11:23:35;16.37;;;11.57;;
8225;SDS011;4154;48.810;9.012;2022-12-18T11:26:16;14.83;;;10.33;;
8225;SDS011;4154;48.810;9.012;2022-12-18T11:31:24;16.60;;;11.10;;
8225;SDS011;4154;48.810;9.012;2022-12-18T11:36:55;17.10;;;11.57;;
8225;SDS011;4154;48.810;9.012;2022-12-18T11:39:30;16.40;;;12.07;;
8225;SDS011;4154;48.810;9.012;2022-12-18T11:42:12;18.03;;;12.40;;
8225;SDS011;4154;48.810;9.012;2022-12-18T11:45:24;17.13;;;12.17;;
8225;SDS011;4154;48.810;9.012;2022-12-18T11:48:09;16.93;;;11.37;;
8225;SDS011;4154;48.810;9.012;2022-12-18T11:50:46;17.47;;;11.47;;
8225;SDS011;4154;48.810;9.012;2022-12-18T11:53:27;15.40;;;11.07;;
8225;SDS011;4154;48.810;9.012;2022-12-18T12:13:07;17.13;;;11.77;;
8225;SDS011;4154;48.810;9.012;2022-12-18T12:16:09;17.73;;;12.10;;
8225;SDS011;4154;48.810;9.012;2022-12-18T12:26:34;18.80;;;12.10;;
8225;SDS011;4154;48.810;9.012;2022-12-18T12:29:21;15.53;;;11.30;;
8225;SDS011;4154;48.810;9.012;2022-12-18T12:32:36;17.67;;;11.73;;
8225;SDS011;4154;48.810;9.012;2022-12-18T12:35:27;16.13;;;12.17;;
8225;SDS011;4154;48.810;9.012;2022-12-18T12:37:58;16.93;;;11.90;;
8225;SDS011;4154;48.810;9.012;2022-12-18T12:40:49;17.70;;;12.30;;
8225;SDS011;4154;48.810;9.012;2022-12-18T12:43:41;16.37;;;12.13;;
8225;SDS011;4154;48.810;9.012;2022-12-18T12:46:12;16.87;;;11.83;;
8225;SDS011;4154;48.810;9.012;2022-12-18T12:48:43;16.77;;;12.27;;
8225;SDS011;4154;48.810;9.012;2022-12-18T12:51:19;15.93;;;11.80;;
8225;SDS011;4154;48.810;9.012;2022-12-18T12:53:51;16.40;;;11.70;;
8225;SDS011;4154;48.810;9.012;2022-12-18T12:56:20;16.50;;;11.57;;
8225;SDS011;4154;48.810;9.012;2022-12-18T12:59:49;19.03;;;12.27;;
8225;SDS011;4154;48.810;9.012;2022-12-18T13:12:57;16.83;;;11.87;;
8225;SDS011;4154;48.810;9.012;2022-12-18T13:15:24;15.50;;;11.77;;
8225;SDS011;4154;48.810;9.012;2022-12-18T13:18:04;17.77;;;12.20;;
8225;SDS011;4154;48.810;9.012;2022-12-18T13:20:50;16.67;;;12.07;;
8225;SDS011;4154;48.810;9.012;2022-12-18T13:23:33;17.10;;;12.57;;
8225;SDS011;4154;48.810;9.012;2022-12-18T13:31:57;25.37;;;14.20;;
8225;SDS011;4154;48.810;9.012;2022-12-18T13:34:16;18.90;;;13.50;;
8225;SDS011;4154;48.810;9.012;2022-12-18T13:36:47;20.20;;;13.17;;
8225;SDS011;4154;48.810;9.012;2022-12-18T13:39:44;21.47;;;14.33;;
8225;SDS011;4154;48.810;9.012;2022-12-18T14:02:35;20.07;;;13.67;;
8225;SDS011;4154;48.810;9.012;2022-12-18T14:10:15;22.13;;;14.40;;
8225;SDS011;4154;48.810;9.012;2022-12-18T14:28:15;17.27;;;12.00;;
8225;SDS011;4154;48.810;9.012;2022-12-18T14:39:16;21.50;;;13.90;;
8225;SDS011;4154;48.810;9.012;2022-12-18T14:46:46;21.03;;;14.13;;
8225;SDS011;4154;48.810;9.012;2022-12-18T14:50:15;19.80;;;13.40;;
8225;SDS011;4154;48.810;9.012;2022-12-18T14:53:33;21.07;;;13.70;;
8225;SDS011;4154;48.810;9.012;2022-12-18T14:56:30;21.03;;;14.70;;
8225;SDS011;4154;48.810;9.012;2022-12-18T14:59:44;21.33;;;14.43;;
8225;SDS011;4154;48.810;9.012;2022-12-18T15:02:50;20.77;;;14.87;;
8225;SDS011;4154;48.810;9.012;2022-12-18T15:09:22;19.93;;;13.57;;
8225;SDS011;4154;48.810;9.012;2022-12-18T15:12:37;20.83;;;14.27;;
8225;SDS011;4154;48.810;9.012;2022-12-18T15:21:10;18.90;;;13.80;;
8225;SDS011;4154;48.810;9.012;2022-12-18T15:24:13;18.53;;;13.23;;
8225;SDS011;4154;48.810;9.012;2022-12-18T15:26:51;21.13;;;14.50;;
8225;SDS011;4154;48.810;9.012;2022-12-18T15:29:22;19.90;;;13.87;;
8225;SDS011;4154;48.810;9.012;2022-12-18T15:32:03;20.37;;;13.97;;
8225;SDS011;4154;48.810;9.012;2022-12-18T15:34:42;20.77;;;13.57;;
8225;SDS011;4154;48.810;9.012;2022-12-18T15:37:09;21.33;;;13.87;;
8225;SDS011;4154;48.810;9.012;2022-12-18T15:39:35;20.37;;;13.77;;
8225;SDS011;4154;48.810;9.012;2022-12-18T15:42:01;18.93;;;13.80;;
8225;SDS011;4154;48.810;9.012;2022-12-18T15:44:51;21.53;;;13.80;;
8225;SDS011;4154;48.810;9.012;2022-12-18T15:47:17;20.80;;;14.07;;
8225;SDS011;4154;48.810;9.012;2022-12-18T15:49:43;19.80;;;14.10;;
8225;SDS011;4154;48.810;9.012;2022-12-18T15:52:09;22.03;;;15.27;;
8225;SDS011;4154;48.810;9.012;2022-12-18T15:54:38;19.57;;;14.63;;
8225;SDS011;4154;48.810;9.012;2022-12-18T15:57:22;22.13;;;14.83;;
8225;SDS011;4154;48.810;9.012;2022-12-18T15:59:48;19.50;;;14.73;;
8225;SDS011;4154;48.810;9.012;2022-12-18T16:02:18;21.87;;;16.73;;
8225;SDS011;4154;48.810;9.012;2022-12-18T16:04:45;21.43;;;15.10;;
8225;SDS011;4154;48.810;9.012;2022-12-18T16:07:11;21.03;;;15.17;;
8225;SDS011;4154;48.810;9.012;2022-12-18T16:09:37;22.00;;;15.17;;
8225;SDS011;4154;48.810;9.012;2022-12-18T16:12:11;23.10;;;15.77;;
8225;SDS011;4154;48.810;9.012;2022-12-18T16:14:44;21.00;;;14.87;;
8225;SDS011;4154;48.810;9.012;2022-12-18T16:17:11;20.30;;;13.77;;
8225;SDS011;4154;48.810;9.012;2022-12-18T16:19:39;21.67;;;14.83;;
8225;SDS011;4154;48.810;9.012;2022-12-18T16:22:05;22.33;;;15.43;;
8225;SDS011;4154;48.810;9.012;2022-12-18T16:24:47;22.33;;;15.10;;
8225;SDS011;4154;48.810;9.012;2022-12-18T16:27:14;20.57;;;14.87;;
8225;SDS011;4154;48.810;9.012;2022-12-18T16:29:40;21.30;;;14.27;;
8225;SDS011;4154;48.810;9.012;2022-12-18T16:32:08;20.67;;;14.70;;
8225;SDS011;4154;48.810;9.012;2022-12-18T16:34:38;22.83;;;14.70;;
8225;SDS011;4154;48.810;9.012;2022-12-18T16:37:17;19.17;;;14.13;;
8225;SDS011;4154;48.810;9.012;2022-12-18T16:40:04;20.20;;;14.50;;
8225;SDS011;4154;48.810;9.012;2022-12-18T16:42:46;23.20;;;15.20;;
8225;SDS011;4154;48.810;9.012;2022-12-18T16:45:14;20.80;;;14.53;;
8225;SDS011;4154;48.810;9.012;2022-12-18T16:47:42;20.53;;;14.50;;
8225;SDS011;4154;48.810;9.012;2022-12-18T16:50:09;20.70;;;14.40;;
8225;SDS011;4154;48.810;9.012;2022-12-18T16:52:36;21.27;;;14.40;;
8225;SDS011;4154;48.810;9.012;2022-12-18T16:55:02;23.80;;;16.27;;
8225;SDS011;4154;48.810;9.012;2022-12-18T16:57:28;24.63;;;16.07;;
8225;SDS011;4154;48.810;9.012;2022-12-18T16:59:54;24.73;;;16.60;;
8225;SDS011;4154;48.810;9.012;2022-12-18T17:02:21;25.33;;;15.87;;
8225;SDS011;4154;48.810;9.012;2022-12-18T17:04:52;20.37;;;14.30;;
8225;SDS011;4154;48.810;9.012;2022-12-18T17:07:20;21.00;;;14.47;;
8225;SDS011;4154;48.810;9.012;2022-12-18T17:09:46;22.40;;;14.73;;
8225;SDS011;4154;48.810;9.012;2022-12-18T17:12:14;21.63;;;14.40;;
8225;SDS011;4154;48.810;9.012;2022-12-18T17:14:41;19.90;;;14.60;;
8225;SDS011;4154;48.810;9.012;2022-12-18T17:17:07;22.23;;;14.97;;
8225;SDS011;4154;48.810;9.012;2022-12-18T17:19:33;20.97;;;14.30;;
8225;SDS011;4154;48.810;9.012;2022-12-18T17:21:59;22.93;;;15.07;;
8225;SDS011;4154;48.810;9.012;2022-12-18T17:24:25;20.43;;;14.13;;
8225;SDS011;4154;48.810;9.012;2022-12-18T17:26:51;20.47;;;13.77;;
8225;SDS011;4154;48.810;9.012;2022-12-18T17:29:18;19.63;;;14.23;;
8225;SDS011;4154;48.810;9.012;2022-12-18T17:31:45;21.27;;;13.63;;
8225;SDS011;4154;48.810;9.012;2022-12-18T17:34:12;20.67;;;14.50;;
8225;SDS011;4154;48.810;9.012;2022-12-18T17:36:38;21.70;;;13.47;;
8225;SDS011;4154;48.810;9.012;2022-12-18T17:39:06;20.17;;;14.23;;
8225;SDS011;4154;48.810;9.012;2022-12-18T17:41:32;20.07;;;14.03;;
8225;SDS011;4154;48.810;9.012;2022-12-18T17:44:03;20.77;;;14.67;;
8225;SDS011;4154;48.810;9.012;2022-12-18T17:46:30;21.60;;;14.67;;
8225;SDS011;4154;48.810;9.012;2022-12-18T17:48:58;18.77;;;14.03;;
8225;SDS011;4154;48.810;9.012;2022-12-18T17:51:26;20.37;;;14.03;;
8225;SDS011;4154;48.810;9.012;2022-12-18T17:53:53;20.50;;;14.60;;
8225;SDS011;4154;48.810;9.012;2022-12-18T17:56:20;22.60;;;14.70;;
8225;SDS011;4154;48.810;9.012;2022-12-18T17:58:48;20.60;;;14.77;;
8225;SDS011;4154;48.810;9.012;2022-12-18T18:01:15;19.23;;;13.57;;
8225;SDS011;4154;48.810;9.012;2022-12-18T18:03:45;20.63;;;14.33;;
8225;SDS011;4154;48.810;9.012;2022-12-18T18:06:11;20.60;;;14.50;;